Latest Weather Observations for Warburto Point

IDS60801

Issued at 10:01 am CDT Saturday 10 December 2022 (issued every 10 minutes, with the page automatically refreshed every 10 minutes)

About weather observations | Map of weather stations | Latest weather observations for SA | Other Formats
Station Details ID: 022053 Name: WARBURTO POINT Lat: -34.00 Lon: 137.53 Height: 1.0 m
Data from the previous 72 hours. | See also: Recent months at Warburto Point
Date/Time
CDT
Temp
°C
App
Temp
°C
Dew
Point
°C
Rel
Hum
%
Delta-T
°C
Wind Press
QNH
hPa
Press
MSL
hPa
Rain since
9am
mm
Dir  Spd
km/h
Gust
km/h
Spd
kts
Gust
kts
10/10:00am - - - - - NNE 24 32 13 17 - - -
10/09:30am - - - - - NNE 32 37 17 20 - - -
10/09:00am - - - - - NNE 32 39 17 21 - - -
10/08:30am - - - - - NNE 28 33 15 18 - - -
10/08:00am - - - - - NNE 24 28 13 15 - - -
10/07:30am - - - - - NE 20 26 11 14 - - -
10/07:00am - - - - - NE 20 26 11 14 - - -
10/06:30am - - - - - NE 20 26 11 14 - - -
10/06:00am - - - - - NE 19 26 10 14 - - -
10/05:30am - - - - - NE 20 26 11 14 - - -
10/05:00am - - - - - NE 20 26 11 14 - - -
10/04:30am - - - - - NE 19 26 10 14 - - -
10/04:00am - - - - - NE 19 24 10 13 - - -
10/03:30am - - - - - NE 20 28 11 15 - - -
10/03:00am - - - - - NE 19 24 10 13 - - -
10/02:30am - - - - - NE 19 22 10 12 - - -
10/02:00am - - - - - NE 17 20 9 11 - - -
10/01:30am - - - - - ENE 19 20 10 11 - - -
10/01:00am - - - - - ENE 19 20 10 11 - - -
10/12:30am - - - - - ENE 19 22 10 12 - - -
10/12:00am - - - - - E 17 22 9 12 - - -
 
Date/Time
CDT
Temp
°C
App
Temp
°C
Dew
Point
°C
Rel
Hum
%
Delta-T
°C
Wind Press
QNH
hPa
Press
MSL
hPa
Rain since
9am
mm
Dir  Spd
km/h
Gust
km/h
Spd
kts
Gust
kts
09/11:30pm - - - - - E 19 24 10 13 - - -
09/11:00pm - - - - - E 20 26 11 14 - - -
09/10:30pm - - - - - ESE 26 32 14 17 - - -
09/10:00pm - - - - - ESE 24 32 13 17 - - -
09/09:30pm - - - - - ESE 19 24 10 13 - - -
09/09:00pm - - - - - ESE 20 28 11 15 - - -
09/08:30pm - - - - - ESE 15 19 8 10 - - -
09/08:00pm - - - - - SSW 11 13 6 7 - - -
09/07:30pm - - - - - S 9 13 5 7 - - -
09/07:00pm - - - - - SSE 9 11 5 6 - - -
09/06:30pm - - - - - SSE 11 13 6 7 - - -
09/06:00pm - - - - - SE 13 15 7 8 - - -
09/05:30pm - - - - - ENE 9 13 5 7 - - -
09/05:00pm - - - - - N 15 17 8 9 - - -
09/04:30pm - - - - - N 15 19 8 10 - - -
09/04:00pm - - - - - NNW 13 17 7 9 - - -
09/03:30pm - - - - - N 15 19 8 10 - - -
09/03:00pm - - - - - NNW 17 20 9 11 - - -
09/02:30pm - - - - - NNW 17 19 9 10 - - -
09/02:00pm - - - - - N 19 24 10 13 - - -
09/01:30pm - - - - - N 20 26 11 14 - - -
09/01:00pm - - - - - N 24 28 13 15 - - -
09/12:30pm - - - - - N 20 26 11 14 - - -
09/12:00pm - - - - - NNW 17 20 9 11 - - -
09/11:30am - - - - - NNW 11 13 6 7 - - -
09/11:00am - - - - - NNE 13 22 7 12 - - -
09/10:30am - - - - - E 17 22 9 12 - - -
09/10:00am - - - - - E 15 20 8 11 - - -
09/09:30am - - - - - ENE 22 28 12 15 - - -
09/09:00am - - - - - E 24 30 13 16 - - -
09/08:30am - - - - - ESE 22 30 12 16 - - -
09/08:00am - - - - - ESE 15 17 8 9 - - -
09/07:30am - - - - - ESE 15 20 8 11 - - -
09/07:00am - - - - - ESE 19 24 10 13 - - -
09/06:30am - - - - - E 22 30 12 16 - - -
09/06:00am - - - - - E 19 26 10 14 - - -
09/05:30am - - - - - E 20 26 11 14 - - -
09/05:00am - - - - - E 22 30 12 16 - - -
09/04:30am - - - - - E 22 30 12 16 - - -
09/04:00am - - - - - E 26 33 14 18 - - -
09/03:30am - - - - - E 30 35 16 19 - - -
09/03:00am - - - - - ESE 32 41 17 22 - - -
09/02:30am - - - - - E 26 33 14 18 - - -
09/02:00am - - - - - E 19 24 10 13 - - -
09/01:30am - - - - - E 24 32 13 17 - - -
09/01:00am - - - - - ESE 28 35 15 19 - - -
09/12:30am - - - - - ESE 26 35 14 19 - - -
09/12:00am - - - - - ESE 26 33 14 18 - - -
 
Date/Time
CDT
Temp
°C
App
Temp
°C
Dew
Point
°C
Rel
Hum
%
Delta-T
°C
Wind Press
QNH
hPa
Press
MSL
hPa
Rain since
9am
mm
Dir  Spd
km/h
Gust
km/h
Spd
kts
Gust
kts
08/11:30pm - - - - - ESE 28 35 15 19 - - -
08/11:00pm - - - - - SE 26 35 14 19 - - -
08/10:30pm - - - - - SE 30 39 16 21 - - -
08/10:00pm - - - - - SSE 32 41 17 22 - - -
08/09:30pm - - - - - SSE 32 39 17 21 - - -
08/09:00pm - - - - - SE 30 37 16 20 - - -
08/08:30pm - - - - - SE 30 35 16 19 - - -
08/08:00pm - - - - - SE 28 35 15 19 - - -
08/07:30pm - - - - - SE 24 30 13 16 - - -
08/07:00pm - - - - - SE 22 28 12 15 - - -
08/06:30pm - - - - - SE 22 32 12 17 - - -
08/06:00pm - - - - - SE 20 30 11 16 - - -
08/05:30pm - - - - - SE 20 30 11 16 - - -
08/05:00pm - - - - - SE 22 32 12 17 - - -
08/04:30pm - - - - - SSE 22 28 12 15 - - -
08/04:00pm - - - - - SE 20 32 11 17 - - -
08/03:30pm - - - - - SSW 33 43 18 23 - - -
08/03:00pm - - - - - SW 33 41 18 22 - - -
08/02:30pm - - - - - SSW 37 44 20 24 - - -
08/02:00pm - - - - - SW 32 37 17 20 - - -
08/01:30pm - - - - - SW 30 35 16 19 - - -
08/01:00pm - - - - - SW 30 37 16 20 - - -
08/12:30pm - - - - - SW 28 35 15 19 - - -
08/12:00pm - - - - - SW 19 26 10 14 - - -
08/11:30am - - - - - SSE 17 26 9 14 - - -
08/11:00am - - - - - S 19 24 10 13 - - -
08/10:30am - - - - - SSE 22 32 12 17 - - -
08/10:00am - - - - - SSE 20 28 11 15 - - -
08/09:30am - - - - - SSE 20 28 11 15 - - -
08/09:00am - - - - - SSE 24 32 13 17 - - -
08/08:30am - - - - - S 26 33 14 18 - - -
08/08:00am - - - - - S 30 35 16 19 - - -
08/07:30am - - - - - SSE 28 33 15 18 - - -
08/07:00am - - - - - SSE 28 35 15 19 - - -
08/06:30am - - - - - SSE 28 33 15 18 - - -
08/06:00am - - - - - S 32 35 17 19 - - -
08/05:30am - - - - - S 32 35 17 19 - - -
08/05:00am - - - - - S 32 37 17 20 - - -
08/04:30am - - - - - S 32 39 17 21 - - -
08/04:00am - - - - - S 30 35 16 19 - - -
08/03:30am - - - - - S 33 39 18 21 - - -
08/03:00am - - - - - S 33 41 18 22 - - -
08/02:30am - - - - - S 33 39 18 21 - - -
08/02:00am - - - - - S 32 37 17 20 - - -
08/01:30am - - - - - S 32 39 17 21 - - -
08/01:00am - - - - - SSE 35 43 19 23 - - -
08/12:30am - - - - - SSE 33 41 18 22 - - -
08/12:00am - - - - - SSE 32 39 17 21 - - -
 
Date/Time
CDT
Temp
°C
App
Temp
°C
Dew
Point
°C
Rel
Hum
%
Delta-T
°C
Wind Press
QNH
hPa
Press
MSL
hPa
Rain since
9am
mm
Dir  Spd
km/h
Gust
km/h
Spd
kts
Gust
kts
07/11:30pm - - - - - SSE 32 41 17 22 - - -
07/11:00pm - - - - - SSE 32 43 17 23 - - -
07/10:30pm - - - - - SSE 33 44 18 24 - - -
07/10:00pm - - - - - SSE 33 43 18 23 - - -
07/09:30pm - - - - - SSE 37 48 20 26 - - -
07/09:00pm - - - - - S 35 43 19 23 - - -
07/08:30pm - - - - - S 37 44 20 24 - - -
07/08:00pm - - - - - SSW 35 44 19 24 - - -
07/07:30pm - - - - - SSW 37 50 20 27 - - -
07/07:00pm - - - - - SSW 43 56 23 30 - - -
07/06:30pm - - - - - SSW 41 52 22 28 - - -
07/06:00pm - - - - - SSW 41 52 22 28 - - -
07/05:30pm - - - - - SW 37 48 20 26 - - -
07/05:00pm - - - - - SW 37 50 20 27 - - -
07/04:30pm - - - - - SW 39 48 21 26 - - -
07/04:00pm - - - - - SW 37 48 20 26 - - -
07/03:30pm - - - - - SW 35 48 19 26 - - -
07/03:00pm - - - - - SW 37 50 20 27 - - -
07/02:30pm - - - - - SW 39 48 21 26 - - -
07/02:00pm - - - - - SW 37 48 20 26 - - -
07/01:30pm - - - - - SW 37 48 20 26 - - -
07/01:00pm - - - - - SW 35 46 19 25 - - -
07/12:30pm - - - - - SW 33 43 18 23 - - -
07/12:00pm - - - - - SW 32 41 17 22 - - -
07/11:30am - - - - - SSW 32 43 17 23 - - -
07/11:00am - - - - - SSW 32 43 17 23 - - -
07/10:30am - - - - - SSW 32 41 17 22 - - -

Other formats

Comma delimited format used in spreadsheet applications
http://www.bom.gov.au/fwo/IDS60801/IDS60801.94666.axf

JavaScript Object Notation format (JSON) in row-major order
http://www.bom.gov.au/fwo/IDS60801/IDS60801.94666.json

Data quality

Most of these data are generated automatically and are frequently updated. Quality checks on data are not normally performed. It is possible for incorrect values to appear. Refer to information at About Latest Weather Observations and please check the disclaimer before using these data.